createdAt,value
2019-02-19T00:00:32.967Z,1005.21
2019-02-19T00:01:32.940Z,1005.18
2019-02-19T00:03:37.130Z,1005.27
2019-02-19T00:04:37.095Z,1005.23
2019-02-19T00:06:41.287Z,1005.18
2019-02-19T00:07:41.255Z,1005.16
2019-02-19T00:09:45.463Z,1005.18
2019-02-19T00:10:45.424Z,1005.21
2019-02-19T00:12:39.552Z,1005.20
2019-02-19T00:13:39.525Z,1005.25
2019-02-19T00:15:43.736Z,1005.22
2019-02-19T00:16:43.702Z,1005.21
2019-02-19T00:18:47.886Z,1005.18
2019-02-19T00:19:47.864Z,1005.19
2019-02-19T00:21:52.053Z,1005.19
2019-02-19T00:22:52.011Z,1005.18
2019-02-19T00:24:56.203Z,1005.17
2019-02-19T00:25:56.165Z,1005.16
2019-02-19T00:28:00.372Z,1005.11
2019-02-19T00:29:00.324Z,1005.15
2019-02-19T00:31:04.505Z,1005.14
2019-02-19T00:32:04.485Z,1005.19
2019-02-19T00:34:08.684Z,1005.15
2019-02-19T00:35:08.644Z,1005.16
2019-02-19T00:37:12.827Z,1005.24
2019-02-19T00:38:12.828Z,1005.23
2019-02-19T00:40:16.992Z,1005.25
2019-02-19T00:41:16.949Z,1005.22
2019-02-19T00:43:10.063Z,1005.21
2019-02-19T00:44:10.031Z,1005.20
2019-02-19T00:46:14.232Z,1005.13
2019-02-19T00:47:14.234Z,1005.22
2019-02-19T00:49:18.400Z,1005.21
2019-02-19T00:50:18.374Z,1005.16
2019-02-19T00:52:22.567Z,1005.12
2019-02-19T00:53:22.529Z,1005.10
2019-02-19T00:55:26.710Z,1005.15
2019-02-19T00:56:26.681Z,1005.18
2019-02-19T00:58:30.891Z,1005.16
2019-02-19T00:59:30.839Z,1005.16
2019-02-19T01:01:35.042Z,1005.19
2019-02-19T01:02:34.997Z,1005.22
2019-02-19T01:04:39.202Z,1005.16
2019-02-19T01:05:39.153Z,1005.15
2019-02-19T01:07:43.427Z,1005.23
2019-02-19T01:08:43.309Z,1005.22
2019-02-19T01:10:47.487Z,1005.25
2019-02-19T01:11:47.458Z,1005.20
2019-02-19T01:13:51.665Z,1005.20
2019-02-19T01:14:51.640Z,1005.18
2019-02-19T01:16:55.828Z,1005.16
2019-02-19T01:17:55.800Z,1005.10
2019-02-19T01:19:59.972Z,1005.15
2019-02-19T01:20:59.948Z,1005.15
2019-02-19T01:22:53.085Z,1005.18
2019-02-19T01:23:53.054Z,1005.17
2019-02-19T01:25:57.249Z,1005.07
2019-02-19T01:26:57.222Z,1005.13
2019-02-19T01:29:01.418Z,1005.10
2019-02-19T01:30:01.378Z,1005.11
2019-02-19T01:32:05.551Z,1005.09
2019-02-19T01:33:05.527Z,1005.11
2019-02-19T01:35:09.747Z,1005.11
2019-02-19T01:36:09.686Z,1005.15
2019-02-19T01:38:13.868Z,1005.11
2019-02-19T01:39:13.839Z,1005.10
2019-02-19T01:41:18.030Z,1005.08
2019-02-19T01:42:17.993Z,1005.11
2019-02-19T01:44:22.176Z,1005.14
2019-02-19T01:45:22.150Z,1005.07
2019-02-19T01:47:26.336Z,1005.05
2019-02-19T01:48:26.303Z,1005.09
2019-02-19T01:50:30.482Z,1005.06
2019-02-19T01:51:30.481Z,1005.05
2019-02-19T01:53:23.776Z,1005.07
2019-02-19T01:54:23.738Z,1005.04
2019-02-19T01:56:27.924Z,1005.07
2019-02-19T01:57:27.897Z,1005.04
2019-02-19T01:59:32.098Z,1005.02
2019-02-19T02:00:32.052Z,1005.01
2019-02-19T02:02:25.164Z,1005.05
2019-02-19T02:03:25.135Z,1004.98
2019-02-19T02:05:29.322Z,1004.94
2019-02-19T02:06:29.287Z,1004.98
2019-02-19T02:08:33.467Z,1004.97
2019-02-19T02:09:33.444Z,1004.91
2019-02-19T02:11:37.648Z,1004.90
2019-02-19T02:12:37.614Z,1004.96
2019-02-19T02:14:41.794Z,1004.93
2019-02-19T02:15:42.880Z,1004.92
2019-02-19T02:17:45.959Z,1004.94
2019-02-19T02:18:45.935Z,1004.94
2019-02-19T02:20:50.105Z,1004.94
2019-02-19T02:21:50.081Z,1004.95
2019-02-19T02:23:54.296Z,1004.93
2019-02-19T02:24:54.256Z,1004.92
2019-02-19T02:26:58.440Z,1004.91
2019-02-19T02:27:58.415Z,1004.89
2019-02-19T02:30:02.602Z,1004.91
2019-02-19T02:31:02.566Z,1004.87
2019-02-19T02:32:55.680Z,1004.87
2019-02-19T02:33:55.653Z,1004.91
2019-02-19T02:35:59.840Z,1004.87
2019-02-19T02:36:59.806Z,1004.91
2019-02-19T02:39:04.081Z,1004.89
2019-02-19T02:40:03.968Z,1004.86
2019-02-19T02:42:08.157Z,1004.93
2019-02-19T02:43:08.129Z,1004.95
2019-02-19T02:45:12.301Z,1004.92
2019-02-19T02:46:12.273Z,1004.96
2019-02-19T02:48:16.462Z,1004.92
2019-02-19T02:49:16.427Z,1004.90
2019-02-19T02:51:20.606Z,1004.93
2019-02-19T02:52:20.578Z,1004.95
2019-02-19T02:54:24.765Z,1004.99
2019-02-19T02:55:24.730Z,1004.99
2019-02-19T02:57:28.946Z,1004.92
2019-02-19T02:58:28.913Z,1004.95
2019-02-19T03:00:33.115Z,1004.92
2019-02-19T03:01:33.065Z,1004.92
2019-02-19T03:03:37.251Z,1004.93
2019-02-19T03:04:37.227Z,1004.96
2019-02-19T03:06:41.409Z,1004.96
2019-02-19T03:07:41.401Z,1004.95
2019-02-19T03:09:45.560Z,1004.96
2019-02-19T03:10:45.534Z,1004.94
2019-02-19T03:12:38.654Z,1004.95
2019-02-19T03:13:38.618Z,1004.98
2019-02-19T03:15:42.798Z,1004.98
2019-02-19T03:16:42.766Z,1005.02
2019-02-19T03:18:46.971Z,1005.02
2019-02-19T03:19:46.929Z,1004.98
2019-02-19T03:21:51.110Z,1005.01
2019-02-19T03:22:51.084Z,1004.97
2019-02-19T03:24:55.278Z,1004.97
2019-02-19T03:25:55.244Z,1004.89
2019-02-19T03:27:59.423Z,1004.89
2019-02-19T03:28:59.399Z,1004.90
2019-02-19T03:31:03.588Z,1004.96
2019-02-19T03:32:03.564Z,1004.96
2019-02-19T03:34:07.742Z,1004.96
2019-02-19T03:35:07.721Z,1004.93
2019-02-19T03:37:11.928Z,1004.98
2019-02-19T03:38:11.895Z,1005.03
2019-02-19T03:40:16.083Z,1005.00
2019-02-19T03:41:16.053Z,1005.04
2019-02-19T03:43:09.176Z,1005.06
2019-02-19T03:44:09.135Z,1005.05
2019-02-19T03:46:13.310Z,1005.05
2019-02-19T03:47:13.288Z,1005.08
2019-02-19T03:49:17.470Z,1005.14
2019-02-19T03:50:17.436Z,1005.11
2019-02-19T03:52:21.624Z,1005.05
2019-02-19T03:53:21.612Z,1005.12
2019-02-19T03:55:25.791Z,1005.04
2019-02-19T03:56:25.765Z,1005.06
2019-02-19T03:57:25.730Z,1005.11
2019-02-19T03:58:25.714Z,1005.09
2019-02-19T03:59:25.685Z,1005.03
2019-02-19T04:00:25.665Z,1005.09
2019-02-19T04:01:25.641Z,1005.08
2019-02-19T04:02:25.617Z,1005.13
2019-02-19T04:03:25.594Z,1005.13
2019-02-19T04:04:25.569Z,1005.08
2019-02-19T04:05:25.546Z,1005.10
2019-02-19T04:06:25.522Z,1005.18
2019-02-19T04:07:25.512Z,1005.09
2019-02-19T04:08:25.478Z,1005.15
2019-02-19T04:09:25.476Z,1005.21
2019-02-19T04:10:25.430Z,1005.16
2019-02-19T04:11:25.408Z,1005.19
2019-02-19T04:12:25.384Z,1005.18
2019-02-19T04:13:25.362Z,1005.17
2019-02-19T04:14:25.346Z,1005.15
2019-02-19T04:15:25.324Z,1005.19
2019-02-19T04:16:25.293Z,1005.19
2019-02-19T04:17:25.273Z,1005.21
2019-02-19T04:18:25.240Z,1005.21
2019-02-19T04:19:25.225Z,1005.27
2019-02-19T04:20:25.205Z,1005.24
2019-02-19T04:21:25.190Z,1005.26
2019-02-19T04:22:25.155Z,1005.23
2019-02-19T04:23:25.132Z,1005.22
2019-02-19T04:24:25.113Z,1005.21
2019-02-19T04:25:25.086Z,1005.23
2019-02-19T04:26:25.063Z,1005.21
2019-02-19T04:27:25.042Z,1005.18
2019-02-19T04:28:25.028Z,1005.24
2019-02-19T04:29:24.997Z,1005.28
2019-02-19T04:30:24.975Z,1005.26
2019-02-19T04:31:24.949Z,1005.25
2019-02-19T04:32:24.927Z,1005.26
2019-02-19T04:33:24.902Z,1005.32
2019-02-19T04:34:24.889Z,1005.27
2019-02-19T04:35:24.857Z,1005.22
2019-02-19T04:36:24.839Z,1005.26
2019-02-19T04:37:24.814Z,1005.25
2019-02-19T04:38:24.794Z,1005.25
2019-02-19T04:39:24.769Z,1005.22
2019-02-19T04:40:24.744Z,1005.25
2019-02-19T04:41:24.718Z,1005.26
2019-02-19T04:42:24.692Z,1005.28
2019-02-19T04:43:24.670Z,1005.22
2019-02-19T04:44:24.649Z,1005.30
2019-02-19T04:45:24.630Z,1005.21
2019-02-19T04:46:31.310Z,1005.13
2019-02-19T04:47:24.581Z,1005.26
2019-02-19T04:48:24.555Z,1005.19
2019-02-19T04:49:24.544Z,1005.26
2019-02-19T04:50:24.509Z,1005.15
2019-02-19T04:51:24.486Z,1005.25
2019-02-19T04:52:24.473Z,1005.29
2019-02-19T04:53:24.440Z,1005.11
2019-02-19T04:54:24.417Z,1005.21
2019-02-19T04:55:24.392Z,1005.14
2019-02-19T04:56:24.371Z,1005.10
2019-02-19T04:57:24.346Z,1005.10
2019-02-19T04:58:24.331Z,1005.07
2019-02-19T04:59:24.305Z,1005.08
2019-02-19T05:00:24.278Z,1005.10
2019-02-19T05:01:24.254Z,1005.20
2019-02-19T05:02:24.232Z,1005.12
2019-02-19T05:03:24.208Z,1005.16
2019-02-19T05:04:24.183Z,1005.13
2019-02-19T05:05:24.161Z,1005.11
2019-02-19T05:06:24.138Z,1005.15
2019-02-19T05:07:24.121Z,1005.11
2019-02-19T05:08:24.093Z,1005.22
2019-02-19T05:09:24.074Z,1005.23
2019-02-19T05:10:24.045Z,1005.15
2019-02-19T05:11:24.025Z,1005.25
2019-02-19T05:12:23.998Z,1005.18
2019-02-19T05:13:23.978Z,1005.21
2019-02-19T05:14:23.976Z,1005.20
2019-02-19T05:15:23.931Z,1005.23
2019-02-19T05:16:23.952Z,1005.28
2019-02-19T05:17:23.891Z,1005.24
2019-02-19T05:18:23.861Z,1005.23
2019-02-19T05:19:23.836Z,1005.24
2019-02-19T05:20:23.807Z,1005.21
2019-02-19T05:21:23.804Z,1005.29
2019-02-19T05:22:23.769Z,1005.27
2019-02-19T05:23:23.751Z,1005.24
2019-02-19T05:24:23.720Z,1005.24
2019-02-19T05:25:23.704Z,1005.26
2019-02-19T05:26:23.672Z,1005.24
2019-02-19T05:27:23.653Z,1005.22
2019-02-19T05:28:23.639Z,1005.24
2019-02-19T05:29:23.609Z,1005.24
2019-02-19T05:30:23.584Z,1005.24
2019-02-19T05:31:23.557Z,1005.30
2019-02-19T05:32:23.535Z,1005.23
2019-02-19T05:33:23.512Z,1005.26
2019-02-19T05:34:23.490Z,1005.28
2019-02-19T05:35:23.467Z,1005.25
2019-02-19T05:36:23.444Z,1005.32
2019-02-19T05:37:23.421Z,1005.31
2019-02-19T05:38:23.395Z,1005.26
2019-02-19T05:39:23.371Z,1005.28
2019-02-19T05:40:23.356Z,1005.35
2019-02-19T05:41:23.329Z,1005.31
2019-02-19T05:42:23.357Z,1005.29
2019-02-19T05:43:23.284Z,1005.33
2019-02-19T05:44:23.271Z,1005.33
2019-02-19T05:45:23.256Z,1005.30
2019-02-19T05:46:23.215Z,1005.32
2019-02-19T05:47:23.187Z,1005.31
2019-02-19T05:48:23.168Z,1005.31
2019-02-19T05:49:23.143Z,1005.29
2019-02-19T05:50:23.118Z,1005.28
2019-02-19T05:51:23.117Z,1005.31
2019-02-19T05:52:23.075Z,1005.33
2019-02-19T05:53:23.048Z,1005.28
2019-02-19T05:54:23.023Z,1005.31
2019-02-19T05:55:23.002Z,1005.31
2019-02-19T05:56:22.976Z,1005.34
2019-02-19T05:57:22.955Z,1005.38
2019-02-19T05:58:22.936Z,1005.38
2019-02-19T05:59:22.910Z,1005.42
2019-02-19T06:00:22.886Z,1005.44
2019-02-19T06:01:22.862Z,1005.46
2019-02-19T06:02:22.838Z,1005.51
2019-02-19T06:03:22.815Z,1005.47
2019-02-19T06:04:22.793Z,1005.53
2019-02-19T06:05:22.768Z,1005.56
2019-02-19T06:06:22.744Z,1005.49
2019-02-19T06:07:22.720Z,1005.55
2019-02-19T06:08:22.697Z,1005.58
2019-02-19T06:09:22.676Z,1005.60
2019-02-19T06:10:22.650Z,1005.54
2019-02-19T06:11:22.633Z,1005.58
2019-02-19T06:12:22.611Z,1005.60
2019-02-19T06:13:22.584Z,1005.58
2019-02-19T06:14:22.560Z,1005.59
2019-02-19T06:15:22.533Z,1005.61
2019-02-19T06:16:22.516Z,1005.61
2019-02-19T06:17:22.488Z,1005.64
2019-02-19T06:18:22.468Z,1005.65
2019-02-19T06:19:22.446Z,1005.64
2019-02-19T06:20:22.418Z,1005.68
2019-02-19T06:21:22.401Z,1005.72
2019-02-19T06:22:22.371Z,1005.71
2019-02-19T06:23:22.348Z,1005.70
2019-02-19T06:24:22.359Z,1005.68
2019-02-19T06:25:22.319Z,1005.67
2019-02-19T06:26:22.277Z,1005.66
2019-02-19T06:27:22.252Z,1005.67
2019-02-19T06:28:22.231Z,1005.72
2019-02-19T06:29:22.209Z,1005.69
2019-02-19T06:30:22.183Z,1005.68
2019-02-19T06:31:22.158Z,1005.73
2019-02-19T06:32:22.146Z,1005.74
2019-02-19T06:33:22.114Z,1005.75
2019-02-19T06:34:22.100Z,1005.73
2019-02-19T06:35:22.068Z,1005.71
2019-02-19T06:36:22.045Z,1005.75
2019-02-19T06:37:22.020Z,1005.82
2019-02-19T06:38:21.995Z,1005.85
2019-02-19T06:39:21.975Z,1005.85
2019-02-19T06:40:21.951Z,1005.86
2019-02-19T06:41:21.926Z,1005.90
2019-02-19T06:42:21.896Z,1005.84
2019-02-19T06:43:21.888Z,1005.90
2019-02-19T06:44:21.857Z,1005.96
2019-02-19T06:45:21.837Z,1005.97
2019-02-19T06:46:21.814Z,1006.00
2019-02-19T06:47:21.794Z,1005.99
2019-02-19T06:48:21.765Z,1005.96
2019-02-19T06:49:21.746Z,1005.97
2019-02-19T06:50:21.731Z,1005.96
2019-02-19T06:51:21.700Z,1005.97
2019-02-19T06:52:21.679Z,1005.94
2019-02-19T06:53:21.655Z,1005.91
2019-02-19T06:54:21.632Z,1005.89
2019-02-19T06:55:21.607Z,1005.87
2019-02-19T06:56:21.606Z,1005.89
2019-02-19T06:57:21.561Z,1005.90
2019-02-19T06:58:21.535Z,1005.90
2019-02-19T06:59:21.515Z,1005.94
2019-02-19T07:00:21.495Z,1005.98
2019-02-19T07:01:21.471Z,1005.99
2019-02-19T07:02:21.447Z,1006.01
2019-02-19T07:03:21.423Z,1006.05
2019-02-19T07:04:21.400Z,1005.99
2019-02-19T07:05:21.378Z,1006.02
2019-02-19T07:06:21.355Z,1006.00
2019-02-19T07:07:21.332Z,1005.98
2019-02-19T07:08:21.308Z,1005.99
2019-02-19T07:09:21.288Z,1005.96
2019-02-19T07:10:21.263Z,1005.90
2019-02-19T07:11:21.241Z,1005.97
2019-02-19T07:12:21.221Z,1005.92
2019-02-19T07:13:21.197Z,1005.97
2019-02-19T07:14:21.178Z,1005.98
2019-02-19T07:15:21.153Z,1005.97
2019-02-19T07:16:21.138Z,1005.98
2019-02-19T07:17:21.109Z,1006.00
2019-02-19T07:18:21.255Z,1006.05
2019-02-19T07:19:21.064Z,1006.03
2019-02-19T07:20:21.041Z,1005.99
2019-02-19T07:21:21.033Z,1006.03
2019-02-19T07:22:20.997Z,1006.07
2019-02-19T07:23:20.977Z,1006.07
2019-02-19T07:24:20.964Z,1006.08
2019-02-19T07:25:20.932Z,1006.14
2019-02-19T07:26:20.925Z,1006.10
2019-02-19T07:27:20.885Z,1006.14
2019-02-19T07:28:20.863Z,1006.09
2019-02-19T07:29:20.862Z,1006.12
2019-02-19T07:30:20.819Z,1006.11
2019-02-19T07:31:20.801Z,1006.16
2019-02-19T07:32:20.781Z,1006.15
2019-02-19T07:33:20.760Z,1006.17
2019-02-19T07:34:20.732Z,1006.14
2019-02-19T07:35:20.732Z,1006.15
2019-02-19T07:36:20.687Z,1006.13
2019-02-19T07:37:20.681Z,1006.15
2019-02-19T07:38:20.646Z,1006.10
2019-02-19T07:39:20.626Z,1006.12
2019-02-19T07:40:20.666Z,1006.10
2019-02-19T07:41:20.623Z,1006.10
2019-02-19T07:42:20.559Z,1006.05
2019-02-19T07:43:20.536Z,1006.08
2019-02-19T07:44:20.517Z,1006.06
2019-02-19T07:45:20.500Z,1006.10
2019-02-19T07:46:20.480Z,1006.12
2019-02-19T07:47:24.690Z,1006.10
2019-02-19T07:48:20.427Z,1006.11
2019-02-19T07:49:20.432Z,1006.15
2019-02-19T07:50:20.390Z,1006.19
2019-02-19T07:51:20.367Z,1006.17
2019-02-19T07:52:20.360Z,1006.14
2019-02-19T07:53:20.351Z,1006.23
2019-02-19T07:54:20.329Z,1006.23
2019-02-19T07:55:20.287Z,1006.24
2019-02-19T07:56:20.308Z,1006.27
2019-02-19T07:57:20.339Z,1006.33
2019-02-19T07:58:20.349Z,1006.33
2019-02-19T07:59:20.490Z,1006.38
2019-02-19T08:00:20.355Z,1006.37
2019-02-19T08:01:20.188Z,1006.43
2019-02-19T08:02:20.239Z,1006.39
2019-02-19T08:03:20.217Z,1006.44
2019-02-19T08:04:20.172Z,1006.41
2019-02-19T08:05:20.146Z,1006.45
2019-02-19T08:06:22.118Z,1006.47
2019-02-19T08:07:20.469Z,1006.48
2019-02-19T08:08:20.279Z,1006.46
2019-02-19T08:09:20.162Z,1006.46
2019-02-19T08:10:20.180Z,1006.48
2019-02-19T08:11:20.207Z,1006.50
2019-02-19T08:12:20.080Z,1006.56
2019-02-19T08:13:20.096Z,1006.58
2019-02-19T08:14:20.029Z,1006.62
2019-02-19T08:15:20.082Z,1006.60
2019-02-19T08:16:19.978Z,1006.61
2019-02-19T08:17:20.035Z,1006.61
2019-02-19T08:18:20.009Z,1006.67
2019-02-19T08:19:20.095Z,1006.67
2019-02-19T08:20:19.942Z,1006.69
2019-02-19T08:21:19.932Z,1006.65
2019-02-19T08:22:19.857Z,1006.66
2019-02-19T08:23:19.831Z,1006.63
2019-02-19T08:24:19.776Z,1006.73
2019-02-19T08:25:19.848Z,1006.71
2019-02-19T08:26:19.755Z,1006.66
2019-02-19T08:27:19.790Z,1006.77
2019-02-19T08:28:19.842Z,1006.76
2019-02-19T08:29:19.808Z,1006.81
2019-02-19T08:30:19.816Z,1006.88
2019-02-19T08:31:19.847Z,1006.90
2019-02-19T08:32:19.653Z,1006.83
2019-02-19T08:33:19.728Z,1006.88
2019-02-19T08:34:19.679Z,1006.91
2019-02-19T08:35:19.692Z,1006.93
2019-02-19T08:36:19.546Z,1006.95
2019-02-19T08:37:19.767Z,1006.96
2019-02-19T08:38:19.603Z,1007.00
2019-02-19T08:39:19.622Z,1006.98
2019-02-19T08:40:19.395Z,1007.00
2019-02-19T08:41:19.347Z,1006.90
2019-02-19T08:42:19.342Z,1006.99
2019-02-19T08:43:19.292Z,1006.94
2019-02-19T08:44:19.286Z,1006.90
2019-02-19T08:45:19.351Z,1006.97
2019-02-19T08:46:19.241Z,1007.00
2019-02-19T08:47:19.270Z,1007.04
2019-02-19T08:48:19.206Z,1007.04
2019-02-19T08:49:19.185Z,1006.98
2019-02-19T08:50:19.166Z,1007.08
2019-02-19T08:51:19.123Z,1007.09
2019-02-19T08:52:19.147Z,1007.08
2019-02-19T08:53:19.098Z,1007.06
2019-02-19T08:54:19.058Z,1007.09
2019-02-19T08:55:19.045Z,1007.09
2019-02-19T08:56:26.194Z,1007.09
2019-02-19T08:58:23.223Z,1007.13
2019-02-19T08:59:23.192Z,1007.11
2019-02-19T09:01:27.391Z,1007.13
2019-02-19T09:02:27.364Z,1007.14
2019-02-19T09:04:31.571Z,1007.12
2019-02-19T09:05:31.512Z,1007.24
2019-02-19T09:07:24.645Z,1007.28
2019-02-19T09:08:24.613Z,1007.23
2019-02-19T09:10:28.801Z,1007.28
2019-02-19T09:11:28.785Z,1007.28
2019-02-19T09:13:32.988Z,1007.29
2019-02-19T09:14:32.946Z,1007.33
2019-02-19T09:16:37.141Z,1007.33
2019-02-19T09:17:37.114Z,1007.36
2019-02-19T09:19:41.313Z,1007.38
2019-02-19T09:20:41.283Z,1007.45
2019-02-19T09:22:45.471Z,1007.53
2019-02-19T09:23:45.451Z,1007.55
2019-02-19T09:25:49.657Z,1007.54
2019-02-19T09:26:49.621Z,1007.55
2019-02-19T09:28:53.805Z,1007.53
2019-02-19T09:29:53.821Z,1007.56
2019-02-19T09:31:58.728Z,1007.55
2019-02-19T09:32:58.141Z,1007.57
2019-02-19T09:35:02.330Z,1007.61
2019-02-19T09:36:02.306Z,1007.60
2019-02-19T09:37:55.434Z,1007.66
2019-02-19T09:38:55.402Z,1007.70
2019-02-19T09:40:59.712Z,1007.76
2019-02-19T09:41:59.638Z,1007.71
2019-02-19T09:44:03.783Z,1007.74
2019-02-19T09:45:03.745Z,1007.70
2019-02-19T09:47:07.948Z,1007.74
2019-02-19T09:48:07.912Z,1007.72
2019-02-19T09:50:12.105Z,1007.73
2019-02-19T09:51:12.078Z,1007.77
2019-02-19T09:53:16.266Z,1007.74
2019-02-19T09:54:16.246Z,1007.78
2019-02-19T09:56:20.450Z,1007.77
2019-02-19T09:57:20.421Z,1007.74
2019-02-19T09:59:24.635Z,1007.71
2019-02-19T10:00:24.621Z,1007.78
2019-02-19T10:02:28.812Z,1007.76
2019-02-19T10:03:28.797Z,1007.76
2019-02-19T10:05:22.124Z,1007.73
2019-02-19T10:06:22.109Z,1007.82
2019-02-19T10:08:26.305Z,1007.61
2019-02-19T10:09:26.280Z,1007.72
2019-02-19T10:11:19.592Z,1007.79
2019-02-19T10:12:19.575Z,1007.79
2019-02-19T10:14:23.784Z,1007.85
2019-02-19T10:15:23.755Z,1007.84
2019-02-19T10:17:16.891Z,1007.88
2019-02-19T10:18:16.859Z,1007.85
2019-02-19T10:20:21.071Z,1007.97
2019-02-19T10:21:21.028Z,1007.91
2019-02-19T10:23:25.230Z,1007.91
2019-02-19T10:24:25.208Z,1007.91
2019-02-19T10:26:29.420Z,1007.92
2019-02-19T10:27:29.397Z,1007.90
2019-02-19T10:29:33.589Z,1007.94
2019-02-19T10:30:33.567Z,1007.95
2019-02-19T10:32:37.767Z,1007.96
2019-02-19T10:33:37.752Z,1007.83
2019-02-19T10:35:41.938Z,1007.94
2019-02-19T10:36:41.914Z,1007.94
2019-02-19T10:38:46.122Z,1007.96
2019-02-19T10:39:46.081Z,1007.96
2019-02-19T10:41:50.278Z,1007.96
2019-02-19T10:42:50.254Z,1007.92
2019-02-19T10:44:54.456Z,1008.00
2019-02-19T10:45:54.447Z,1008.05
2019-02-19T10:47:47.559Z,1008.02
2019-02-19T10:48:47.541Z,1008.04
2019-02-19T10:50:51.755Z,1008.14
2019-02-19T10:51:51.725Z,1008.11
2019-02-19T10:53:55.932Z,1008.11
2019-02-19T10:54:55.907Z,1008.10
2019-02-19T10:57:00.111Z,1008.11
2019-02-19T10:58:00.072Z,1008.12
2019-02-19T11:00:04.287Z,1008.16
2019-02-19T11:01:04.244Z,1008.17
2019-02-19T11:03:08.439Z,1008.23
2019-02-19T11:04:08.405Z,1008.22
2019-02-19T11:06:12.598Z,1008.18
2019-02-19T11:07:12.574Z,1008.15
2019-02-19T11:09:16.783Z,1008.20
2019-02-19T11:10:16.739Z,1008.20
2019-02-19T11:12:20.934Z,1008.12
2019-02-19T11:13:20.931Z,1008.14
2019-02-19T11:15:25.104Z,1008.12
2019-02-19T11:16:25.074Z,1008.11
2019-02-19T11:18:29.264Z,1008.09
2019-02-19T11:19:29.242Z,1008.12
2019-02-19T11:21:33.454Z,1008.04
2019-02-19T11:22:33.429Z,1008.05
2019-02-19T11:24:37.633Z,1008.03
2019-02-19T11:25:37.611Z,1008.06
2019-02-19T11:27:30.730Z,1008.11
2019-02-19T11:28:30.699Z,1008.14
2019-02-19T11:30:34.920Z,1008.04
2019-02-19T11:31:34.871Z,1008.04
2019-02-19T11:33:39.058Z,1008.08
2019-02-19T11:34:39.035Z,1008.15
2019-02-19T11:36:43.253Z,1008.10
2019-02-19T11:37:43.241Z,1008.10
2019-02-19T11:39:47.414Z,1008.12
2019-02-19T11:40:47.392Z,1008.07
2019-02-19T11:42:51.587Z,1008.08
2019-02-19T11:43:51.564Z,1008.09
2019-02-19T11:45:55.751Z,1008.11
2019-02-19T11:46:55.730Z,1008.05
2019-02-19T11:48:59.930Z,1008.00
2019-02-19T11:49:59.901Z,1007.98
2019-02-19T11:52:04.110Z,1007.97
2019-02-19T11:53:04.081Z,1007.99
2019-02-19T11:55:08.367Z,1007.97
2019-02-19T11:56:08.249Z,1007.93
2019-02-19T11:58:01.939Z,1007.99
2019-02-19T11:59:01.915Z,1007.93
2019-02-19T12:01:05.552Z,1007.92
2019-02-19T12:02:05.515Z,1007.92
2019-02-19T12:04:09.704Z,1007.88
2019-02-19T12:05:09.683Z,1007.86
2019-02-19T12:07:14.438Z,1007.92
2019-02-19T12:08:14.232Z,1007.92
2019-02-19T12:10:18.383Z,1007.93
2019-02-19T12:11:18.599Z,1007.91
2019-02-19T12:13:22.239Z,1007.92
2019-02-19T12:14:22.608Z,1008.02
2019-02-19T12:16:26.400Z,1007.96
2019-02-19T12:17:26.375Z,1007.98
2019-02-19T12:19:30.585Z,1007.98
2019-02-19T12:20:30.555Z,1008.03
2019-02-19T12:22:34.736Z,1007.98
2019-02-19T12:23:34.721Z,1007.97
2019-02-19T12:25:39.261Z,1007.99
2019-02-19T12:26:39.503Z,1007.94
2019-02-19T12:28:43.077Z,1007.96
2019-02-19T12:29:43.605Z,1007.98
2019-02-19T12:31:47.647Z,1007.92
2019-02-19T12:32:47.881Z,1007.95
2019-02-19T12:34:51.419Z,1007.94
2019-02-19T12:35:51.395Z,1007.91
2019-02-19T12:37:44.527Z,1007.85
2019-02-19T12:38:44.933Z,1007.86
2019-02-19T12:40:48.792Z,1007.87
2019-02-19T12:41:48.659Z,1007.81
2019-02-19T12:43:52.880Z,1007.76
2019-02-19T12:44:52.841Z,1007.86
2019-02-19T12:46:57.036Z,1007.86
2019-02-19T12:47:57.015Z,1007.80
2019-02-19T12:50:01.304Z,1007.84
2019-02-19T12:51:01.802Z,1007.86
2019-02-19T12:53:05.889Z,1007.79
2019-02-19T12:54:05.621Z,1007.79
2019-02-19T12:56:09.567Z,1007.79
2019-02-19T12:57:09.959Z,1007.87
2019-02-19T12:59:13.721Z,1007.80
2019-02-19T13:00:13.710Z,1007.74
2019-02-19T13:02:19.646Z,1007.86
2019-02-19T13:03:17.868Z,1007.78
2019-02-19T13:05:22.062Z,1007.75
2019-02-19T13:06:22.041Z,1007.77
2019-02-19T13:08:26.261Z,1007.69
2019-02-19T13:09:26.228Z,1007.65
2019-02-19T13:10:26.226Z,1007.71
2019-02-19T13:11:26.197Z,1007.73
2019-02-19T13:12:26.176Z,1007.66
2019-02-19T13:13:26.161Z,1007.69
2019-02-19T13:14:26.144Z,1007.62
2019-02-19T13:15:26.125Z,1007.62
2019-02-19T13:16:26.108Z,1007.56
2019-02-19T13:17:26.091Z,1007.67
2019-02-19T13:18:26.077Z,1007.58
2019-02-19T13:19:26.059Z,1007.63
2019-02-19T13:20:26.044Z,1007.63
2019-02-19T13:21:26.025Z,1007.62
2019-02-19T13:22:26.008Z,1007.65
2019-02-19T13:23:26.004Z,1007.67
2019-02-19T13:24:25.975Z,1007.67
2019-02-19T13:25:25.956Z,1007.66
2019-02-19T13:26:25.946Z,1007.65
2019-02-19T13:27:25.931Z,1007.70
2019-02-19T13:28:25.911Z,1007.63
2019-02-19T13:29:25.893Z,1007.62
2019-02-19T13:30:25.875Z,1007.66
2019-02-19T13:31:25.859Z,1007.66
2019-02-19T13:32:25.845Z,1007.65
2019-02-19T13:33:25.828Z,1007.70
2019-02-19T13:34:25.811Z,1007.70
2019-02-19T13:35:25.793Z,1007.74
2019-02-19T13:36:25.782Z,1007.68
2019-02-19T13:37:25.766Z,1007.71
2019-02-19T13:38:25.751Z,1007.69
2019-02-19T13:39:25.742Z,1007.72
2019-02-19T13:40:25.715Z,1007.69
2019-02-19T13:41:25.707Z,1007.73
2019-02-19T13:42:25.696Z,1007.74
2019-02-19T13:43:25.667Z,1007.70
2019-02-19T13:44:25.705Z,1007.63
2019-02-19T13:45:25.636Z,1007.63
2019-02-19T13:46:25.619Z,1007.63
2019-02-19T13:47:25.606Z,1007.62
2019-02-19T13:48:25.591Z,1007.64
2019-02-19T13:49:25.572Z,1007.62
2019-02-19T13:50:25.560Z,1007.70
2019-02-19T13:51:25.543Z,1007.66
2019-02-19T13:52:25.536Z,1007.60
2019-02-19T13:53:25.510Z,1007.65
2019-02-19T13:54:25.497Z,1007.66
2019-02-19T13:55:25.477Z,1007.63
2019-02-19T13:56:25.463Z,1007.69
2019-02-19T13:57:25.447Z,1007.69
2019-02-19T13:58:25.437Z,1007.65
2019-02-19T13:59:25.414Z,1007.63
2019-02-19T14:00:25.401Z,1007.67
2019-02-19T14:01:25.389Z,1007.70
2019-02-19T14:02:25.364Z,1007.53
2019-02-19T14:03:25.350Z,1007.62
2019-02-19T14:04:25.338Z,1007.70
2019-02-19T14:05:25.318Z,1007.71
2019-02-19T14:06:25.301Z,1007.68
2019-02-19T14:07:25.285Z,1007.72
2019-02-19T14:08:25.262Z,1007.69
2019-02-19T14:09:25.258Z,1007.72
2019-02-19T14:10:25.238Z,1007.70
2019-02-19T14:11:25.228Z,1007.67
2019-02-19T14:12:25.211Z,1007.66
2019-02-19T14:13:25.194Z,1007.68
2019-02-19T14:14:25.172Z,1007.59
2019-02-19T14:15:25.155Z,1007.63
2019-02-19T14:16:25.139Z,1007.62
2019-02-19T14:17:25.124Z,1007.57
2019-02-19T14:18:25.108Z,1007.55
2019-02-19T14:19:25.089Z,1007.59
2019-02-19T14:20:25.073Z,1007.54
2019-02-19T14:21:25.058Z,1007.58
2019-02-19T14:22:25.053Z,1007.55
2019-02-19T14:23:25.024Z,1007.61
2019-02-19T14:24:25.011Z,1007.58
2019-02-19T14:25:24.996Z,1007.59
2019-02-19T14:26:24.971Z,1007.62
2019-02-19T14:27:24.984Z,1007.59
2019-02-19T14:28:24.946Z,1007.57
2019-02-19T14:29:24.923Z,1007.53
2019-02-19T14:30:24.906Z,1007.57
2019-02-19T14:31:24.889Z,1007.60
2019-02-19T14:32:24.874Z,1007.50
2019-02-19T14:33:24.856Z,1007.52
2019-02-19T14:34:24.845Z,1007.54
2019-02-19T14:35:24.822Z,1007.52
2019-02-19T14:36:24.805Z,1007.59
2019-02-19T14:37:24.790Z,1007.59
2019-02-19T14:38:24.772Z,1007.58
2019-02-19T14:39:24.755Z,1007.59
2019-02-19T14:40:24.742Z,1007.59
2019-02-19T14:41:24.723Z,1007.53
2019-02-19T14:42:24.704Z,1007.50
2019-02-19T14:43:24.712Z,1007.57
2019-02-19T14:44:24.677Z,1007.51
2019-02-19T14:45:24.657Z,1007.57
2019-02-19T14:46:24.636Z,1007.54
2019-02-19T14:47:24.625Z,1007.49
2019-02-19T14:48:24.608Z,1007.51
2019-02-19T14:49:34.070Z,1007.58
2019-02-19T14:50:24.569Z,1007.59
2019-02-19T14:51:24.558Z,1007.59
2019-02-19T14:52:24.539Z,1007.50
2019-02-19T14:53:24.522Z,1007.57